Home   Weather   USA   Sonoma   Past weeks
Flag for USA

Past Weather in Sonoma, California, USA — Yesterday and Last 2 Weeks

Currently: 52 °F. Clear. (Weather station: Napa County Airport, USA). See more current weather

Past Weather in Sonoma — Graph

°F

Sonoma Temperature Yesterday

Maximum temperature yesterday: 72 °F (at 3:54 pm)
Minimum temperature yesterday: 50 °F (at 12:54 am)
Average temperature yesterday: 56 °F

High & Low Weather Summary for the Past Weeks

 TemperatureHumidityPressure
High78 °F (Apr 10, 1:54 pm)100% (Apr 15, 3:54 am)30.29 "Hg (Apr 15, 3:54 am)
Low34 °F (Apr 6, 5:54 am)22% (Apr 8, 2:54 pm)29.68 "Hg (Apr 12, 6:54 am)
Average55 °F77%30.02 "Hg
* Reported Apr 6 12:36 am — Apr 21 12:54 am, Sonoma. Weather by CustomWeather, © 2024

Note: Actual official high and low records may vary slightly from our data, if they occured in-between our weather recording intervals... More about our weather records

Sonoma Weather History for the Previous 24 Hours

Scroll right to see more
 ConditionsComfort  
Time TempWeatherWind HumidityBarometerVisibility
12:54 am
Sun, Apr 21
52 °FClear.6 mph83%30.06 "Hg10 mi
11:54 pm
Sat, Apr 20
52 °FClear.6 mph80%30.06 "Hg10 mi
10:54 pm53 °FClear.3 mph77%30.05 "Hg10 mi
9:54 pm53 °FClear.5 mph74%30.04 "Hg10 mi
8:54 pm55 °FClear.7 mph69%30.02 "Hg10 mi
7:54 pm58 °FClear.7 mph62%30.01 "Hg10 mi
6:54 pm64 °FSunny.7 mph49%30.01 "Hg10 mi
5:54 pm68 °FSunny.9 mph45%30.01 "Hg10 mi
4:54 pm71 °FSunny.13 mph41%30.01 "Hg10 mi
3:54 pm72 °FSunny.14 mph46%30.02 "Hg10 mi
2:54 pm70 °FSunny.15 mph57%30.03 "Hg10 mi
1:54 pm67 °FSunny.10 mph66%30.05 "Hg10 mi
12:54 pm65 °FSunny.7 mph70%30.06 "Hg10 mi
11:54 am61 °FSunny.7 mph72%30.07 "Hg10 mi
10:54 am58 °FSunny.7 mph75%30.07 "Hg10 mi
9:54 am56 °FScattered clouds.7 mph81%30.06 "Hg10 mi
9:15 am53 °FScattered clouds.3 mph83%30.08 "Hg10 mi
8:54 am53 °FScattered clouds.5 mph83%30.05 "Hg10 mi
7:54 am50 °FLow clouds.6 mph89%30.03 "Hg10 mi
6:54 am50 °FLow clouds.7 mph93%30.01 "Hg10 mi
5:54 am50 °FLow clouds.10 mph93%29.99 "Hg10 mi
5:22 am50 °FLow clouds.14 mph93%30.01 "Hg10 mi
4:54 am50 °FLow clouds.9 mph96%29.98 "Hg10 mi
4:37 am50 °FLow clouds.9 mph96%30.00 "Hg10 mi
3:54 am50 °FLow clouds.8 mph96%29.96 "Hg9 mi
3:41 am50 °FLow clouds.9 mph96%29.99 "Hg9 mi
2:54 am50 °FLow clouds.9 mph96%29.96 "Hg8 mi
2:02 am50 °FLow clouds.8 mph96%29.98 "Hg7 mi
Weather by CustomWeather, © 2024

See weather overview